createdAt,value
2022-09-16T00:00:59.435Z,21.10
2022-09-16T00:03:27.342Z,23.70
2022-09-16T00:05:55.375Z,25.55
2022-09-16T00:08:23.198Z,23.90
2022-09-16T00:10:51.225Z,25.00
2022-09-16T00:13:19.296Z,27.13
2022-09-16T00:15:51.034Z,26.25
2022-09-16T00:18:20.629Z,23.48
2022-09-16T00:20:50.038Z,26.17
2022-09-16T00:23:19.222Z,28.75
2022-09-16T00:25:54.173Z,28.77
2022-09-16T00:28:22.473Z,30.30
2022-09-16T00:30:51.042Z,27.30
2022-09-16T00:33:19.300Z,29.10
2022-09-16T00:35:48.282Z,25.00
2022-09-16T00:38:16.409Z,27.73
2022-09-16T00:40:48.733Z,28.00
2022-09-16T00:43:18.394Z,26.17
2022-09-16T00:45:54.784Z,27.02
2022-09-16T00:50:52.456Z,24.38
2022-09-16T00:53:22.841Z,28.67
2022-09-16T00:55:51.572Z,27.58
2022-09-16T00:58:25.010Z,27.70
2022-09-16T01:00:53.216Z,26.70
2022-09-16T01:03:20.905Z,29.58
2022-09-16T01:05:48.716Z,27.05
2022-09-16T01:08:16.769Z,24.75
2022-09-16T01:10:44.593Z,26.67
2022-09-16T01:13:13.048Z,24.90
2022-09-16T01:15:43.931Z,28.50
2022-09-16T01:18:33.557Z,26.75
2022-09-16T01:21:01.760Z,24.65
2022-09-16T01:23:38.848Z,24.63
2022-09-16T01:26:34.051Z,29.65
2022-09-16T01:29:07.847Z,26.80
2022-09-16T01:31:47.559Z,25.77
2022-09-16T01:34:26.245Z,25.13
2022-09-16T01:37:29.993Z,25.27
2022-09-16T01:40:00.622Z,26.40
2022-09-16T01:42:42.752Z,29.58
2022-09-16T01:45:31.306Z,27.90
2022-09-16T01:48:09.080Z,32.30
2022-09-16T01:50:46.344Z,29.67
2022-09-16T01:53:39.947Z,33.42
2022-09-16T01:56:25.125Z,28.08
2022-09-16T01:59:00.906Z,37.72
2022-09-16T02:01:34.091Z,33.72
2022-09-16T02:04:08.735Z,33.72
2022-09-16T02:06:36.537Z,33.15
2022-09-16T02:09:17.020Z,33.17
2022-09-16T02:11:44.932Z,38.95
2022-09-16T02:14:14.393Z,38.67
2022-09-16T02:16:54.234Z,40.42
2022-09-16T02:19:26.807Z,44.95
2022-09-16T02:21:55.224Z,37.50
2022-09-16T02:24:23.236Z,36.75
2022-09-16T02:26:54.576Z,44.40
2022-09-16T02:29:24.278Z,39.70
2022-09-16T02:31:55.760Z,36.85
2022-09-16T02:34:32.849Z,31.67
2022-09-16T02:37:04.994Z,32.28
2022-09-16T02:39:34.108Z,35.00
2022-09-16T02:42:01.912Z,34.63
2022-09-16T02:44:29.910Z,33.35
2022-09-16T02:47:13.900Z,36.88
2022-09-16T02:49:56.757Z,35.08
2022-09-16T02:52:28.281Z,31.35
2022-09-16T02:55:05.937Z,30.25
2022-09-16T02:57:33.846Z,31.33
2022-09-16T03:00:01.929Z,30.85
2022-09-16T03:02:31.904Z,28.08
2022-09-16T03:05:00.798Z,23.40
2022-09-16T03:07:28.723Z,31.10
2022-09-16T03:09:56.425Z,30.83
2022-09-16T03:12:43.600Z,25.75
2022-09-16T03:17:59.002Z,24.52
2022-09-16T03:20:31.926Z,35.33
2022-09-16T03:23:24.447Z,29.08
2022-09-16T03:26:12.193Z,28.58
2022-09-16T03:28:43.664Z,31.13
2022-09-16T03:31:57.744Z,32.97
2022-09-16T03:34:36.084Z,29.48
2022-09-16T03:37:10.364Z,34.55
2022-09-16T03:39:39.083Z,36.70
2022-09-16T03:42:08.312Z,34.10
2022-09-16T03:44:37.364Z,34.88
2022-09-16T03:47:05.672Z,31.40
2022-09-16T03:49:33.738Z,36.33
2022-09-16T03:52:02.103Z,31.58
2022-09-16T03:54:30.174Z,31.25
2022-09-16T03:56:58.156Z,26.63
2022-09-16T03:59:26.188Z,24.58
2022-09-16T04:01:54.357Z,24.52
2022-09-16T04:04:22.730Z,24.73
2022-09-16T04:06:50.456Z,22.05
2022-09-16T04:09:18.513Z,23.42
2022-09-16T04:11:46.437Z,20.55
2022-09-16T04:14:16.972Z,22.15
2022-09-16T04:16:45.472Z,20.38
2022-09-16T04:19:13.837Z,22.58
2022-09-16T04:21:42.462Z,19.20
2022-09-16T04:24:13.082Z,20.60
2022-09-16T04:26:41.930Z,21.05
2022-09-16T04:29:09.760Z,17.75
2022-09-16T04:31:37.582Z,15.18
2022-09-16T04:34:05.529Z,17.30
2022-09-16T04:36:34.076Z,22.13
2022-09-16T04:39:01.937Z,15.05
2022-09-16T04:41:30.044Z,14.90
2022-09-16T04:43:58.874Z,14.88
2022-09-16T04:46:27.874Z,12.93
2022-09-16T04:48:55.958Z,12.43
2022-09-16T04:51:23.881Z,14.05
2022-09-16T04:53:51.939Z,11.20
2022-09-16T04:56:21.521Z,11.82
2022-09-16T04:58:50.659Z,12.05
2022-09-16T05:01:20.931Z,12.85
2022-09-16T05:03:50.880Z,12.05
2022-09-16T05:06:21.052Z,10.35
2022-09-16T05:08:50.024Z,9.68
2022-09-16T05:11:22.622Z,10.65
2022-09-16T05:13:50.575Z,10.43
2022-09-16T05:16:20.060Z,10.98
2022-09-16T05:18:48.932Z,11.27
2022-09-16T05:21:18.568Z,10.25
2022-09-16T05:23:47.430Z,10.60
2022-09-16T05:26:19.236Z,10.20
2022-09-16T05:28:47.178Z,9.23
2022-09-16T05:31:23.097Z,10.60
2022-09-16T05:34:01.982Z,9.43
2022-09-16T05:36:32.764Z,9.20
2022-09-16T05:41:50.458Z,10.15
2022-09-16T05:44:18.243Z,10.20
2022-09-16T05:46:48.219Z,10.13
2022-09-16T05:49:21.144Z,10.35
2022-09-16T05:51:49.680Z,11.18
2022-09-16T05:54:20.578Z,9.55
2022-09-16T05:56:48.450Z,10.85
2022-09-16T05:59:16.889Z,9.90
2022-09-16T06:01:44.997Z,9.95
2022-09-16T06:04:14.038Z,9.13
2022-09-16T06:06:46.339Z,8.63
2022-09-16T06:09:19.130Z,8.05
2022-09-16T06:11:50.620Z,9.38
2022-09-16T06:14:19.034Z,10.05
2022-09-16T06:16:46.921Z,7.68
2022-09-16T06:19:16.027Z,7.78
2022-09-16T06:21:44.474Z,7.00
2022-09-16T06:24:13.273Z,6.90
2022-09-16T06:26:42.691Z,7.75
2022-09-16T06:29:10.734Z,7.15
2022-09-16T06:31:38.744Z,8.05
2022-09-16T06:34:07.269Z,5.63
2022-09-16T06:36:38.604Z,7.15
2022-09-16T06:39:10.920Z,7.82
2022-09-16T06:41:39.087Z,7.47
2022-09-16T06:44:08.310Z,10.48
2022-09-16T06:46:36.250Z,7.78
2022-09-16T06:49:06.272Z,6.72
2022-09-16T06:51:34.512Z,8.15
2022-09-16T06:54:04.247Z,8.05
2022-09-16T06:56:34.158Z,6.07
2022-09-16T06:59:04.144Z,5.68
2022-09-16T07:01:32.859Z,6.18
2022-09-16T07:04:05.487Z,8.00
2022-09-16T07:06:58.276Z,5.95
2022-09-16T07:09:22.413Z,5.18
2022-09-16T07:11:50.815Z,5.05
2022-09-16T07:14:19.033Z,10.75
2022-09-16T07:16:48.101Z,4.97
2022-09-16T07:19:15.953Z,5.43
2022-09-16T07:21:44.008Z,7.25
2022-09-16T07:24:12.816Z,7.00
2022-09-16T07:26:41.493Z,6.53
2022-09-16T07:29:18.019Z,7.70
2022-09-16T07:31:46.918Z,4.50
2022-09-16T07:34:15.420Z,6.57
2022-09-16T07:36:46.286Z,9.13
2022-09-16T07:39:15.179Z,6.72
2022-09-16T07:41:43.881Z,4.80
2022-09-16T07:44:13.545Z,7.38
2022-09-16T07:46:41.507Z,7.88
2022-09-16T07:49:10.787Z,8.43
2022-09-16T07:51:38.705Z,6.43
2022-09-16T07:54:08.944Z,8.18
2022-09-16T07:56:39.730Z,10.43
2022-09-16T07:59:13.075Z,7.65
2022-09-16T08:01:44.248Z,8.45
2022-09-16T08:04:12.379Z,7.18
2022-09-16T08:06:40.410Z,7.38
2022-09-16T08:09:36.822Z,6.97
2022-09-16T08:11:58.678Z,10.80
2022-09-16T08:14:26.827Z,10.55
2022-09-16T08:16:55.065Z,7.18
2022-09-16T08:19:23.282Z,9.45
2022-09-16T08:21:51.732Z,9.85
2022-09-16T08:24:19.744Z,10.02
2022-09-16T08:26:47.749Z,8.70
2022-09-16T08:29:16.042Z,6.75
2022-09-16T08:31:44.418Z,7.80
2022-09-16T08:34:12.376Z,8.38
2022-09-16T08:36:40.986Z,8.40
2022-09-16T08:39:10.174Z,6.53
2022-09-16T08:41:40.869Z,7.88
2022-09-16T08:44:29.139Z,7.78
2022-09-16T08:47:04.389Z,8.90
2022-09-16T08:49:46.738Z,7.60
2022-09-16T08:52:35.437Z,6.80
2022-09-16T08:55:07.312Z,6.15
2022-09-16T08:57:40.319Z,9.20
2022-09-16T09:00:15.109Z,6.80
2022-09-16T09:03:11.405Z,7.57
2022-09-16T09:05:55.413Z,6.67
2022-09-16T09:08:33.138Z,6.20
2022-09-16T09:11:42.229Z,7.10
2022-09-16T09:14:45.156Z,9.57
2022-09-16T09:17:49.929Z,7.07
2022-09-16T09:20:27.073Z,8.32
2022-09-16T09:23:01.104Z,8.25
2022-09-16T09:26:01.119Z,9.63
2022-09-16T09:28:57.292Z,8.52
2022-09-16T09:31:46.660Z,7.30
2022-09-16T09:34:24.904Z,8.82
2022-09-16T09:37:30.476Z,12.32
2022-09-16T09:40:11.683Z,7.72
2022-09-16T09:42:47.742Z,6.75
2022-09-16T09:45:42.193Z,6.00
2022-09-16T09:48:15.429Z,12.35
2022-09-16T09:50:48.145Z,8.63
2022-09-16T09:53:38.505Z,7.35
2022-09-16T09:56:16.690Z,10.30
2022-09-16T09:59:15.749Z,9.73
2022-09-16T10:01:43.985Z,10.23
2022-09-16T10:04:15.602Z,7.93
2022-09-16T10:06:46.276Z,9.05
2022-09-16T10:09:15.212Z,7.32
2022-09-16T10:11:53.174Z,9.95
2022-09-16T10:14:29.872Z,9.75
2022-09-16T10:17:01.003Z,8.15
2022-09-16T10:19:29.740Z,8.88
2022-09-16T10:22:10.132Z,9.48
2022-09-16T10:24:44.705Z,12.65
2022-09-16T10:27:36.071Z,11.82
2022-09-16T10:30:05.666Z,12.63
2022-09-16T10:32:38.948Z,12.25
2022-09-16T10:35:08.413Z,11.50
2022-09-16T10:37:39.998Z,11.35
2022-09-16T10:40:16.118Z,11.10
2022-09-16T10:42:47.443Z,10.40
2022-09-16T10:45:48.383Z,10.27
2022-09-16T10:48:20.957Z,10.25
2022-09-16T10:50:57.577Z,9.07
2022-09-16T10:53:39.134Z,11.32
2022-09-16T10:56:18.304Z,9.32
2022-09-16T10:58:46.453Z,11.15
2022-09-16T11:01:26.046Z,12.65
2022-09-16T11:04:42.732Z,9.82
2022-09-16T11:07:23.298Z,12.52
2022-09-16T11:10:23.671Z,10.45
2022-09-16T11:12:59.861Z,13.23
2022-09-16T11:15:45.328Z,9.30
2022-09-16T11:18:18.805Z,16.43
2022-09-16T11:20:53.188Z,11.68
2022-09-16T11:23:41.395Z,11.15
2022-09-16T11:26:24.555Z,10.02
2022-09-16T11:29:16.452Z,11.80
2022-09-16T11:32:01.899Z,12.55
2022-09-16T11:34:54.908Z,10.13
2022-09-16T11:37:41.392Z,12.23
2022-09-16T11:40:24.951Z,11.95
2022-09-16T11:43:01.120Z,10.27
2022-09-16T11:45:54.499Z,12.90
2022-09-16T11:48:47.528Z,12.90
2022-09-16T11:51:48.595Z,14.13
2022-09-16T11:54:27.297Z,12.82
2022-09-16T11:57:13.197Z,11.60
2022-09-16T12:00:02.747Z,12.70
2022-09-16T12:02:58.876Z,11.70
2022-09-16T12:05:42.088Z,10.88
2022-09-16T12:08:33.171Z,12.98
2022-09-16T12:11:17.111Z,14.23
2022-09-16T12:14:06.093Z,10.35
2022-09-16T12:16:45.559Z,11.10
2022-09-16T12:19:39.246Z,16.38
2022-09-16T12:22:20.421Z,15.45
2022-09-16T12:25:13.971Z,11.00
2022-09-16T12:27:48.610Z,9.75
2022-09-16T12:30:28.825Z,8.97
2022-09-16T12:33:02.253Z,9.77
2022-09-16T12:35:38.829Z,11.23
2022-09-16T12:38:17.227Z,11.15
2022-09-16T12:41:11.477Z,7.15
2022-09-16T12:43:42.753Z,8.85
2022-09-16T12:46:30.166Z,6.32
2022-09-16T12:48:58.147Z,6.10
2022-09-16T12:51:45.898Z,6.50
2022-09-16T12:55:07.695Z,7.60
2022-09-16T12:58:24.728Z,9.05
2022-09-16T13:01:05.136Z,5.22
2022-09-16T13:06:15.472Z,7.55
2022-09-16T13:08:43.515Z,7.75
2022-09-16T13:12:16.486Z,9.00
2022-09-16T13:14:23.340Z,7.75
2022-09-16T13:16:58.445Z,9.68
2022-09-16T13:19:39.447Z,9.75
2022-09-16T13:22:24.991Z,8.73
2022-09-16T13:25:08.141Z,10.35
2022-09-16T13:27:40.411Z,7.93
2022-09-16T13:30:12.169Z,7.35
2022-09-16T13:32:44.985Z,6.45
2022-09-16T13:35:19.567Z,7.28
2022-09-16T13:37:55.515Z,6.80
2022-09-16T13:43:03.585Z,5.50
2022-09-16T13:45:35.319Z,6.75
2022-09-16T13:48:16.717Z,7.50
2022-09-16T13:50:51.042Z,5.43
2022-09-16T13:53:43.298Z,8.75
2022-09-16T13:56:14.190Z,6.50
2022-09-16T13:59:03.067Z,7.15
2022-09-16T14:01:59.589Z,6.57
2022-09-16T14:04:56.391Z,5.32
2022-09-16T14:07:39.398Z,4.82
2022-09-16T14:10:14.450Z,5.00
2022-09-16T14:13:10.467Z,5.70
2022-09-16T14:15:43.455Z,5.93
2022-09-16T14:18:13.510Z,5.95
2022-09-16T14:20:56.414Z,8.13
2022-09-16T14:23:26.129Z,6.88
2022-09-16T14:25:56.111Z,11.20
2022-09-16T14:28:28.498Z,7.28
2022-09-16T14:30:58.203Z,18.77
2022-09-16T14:33:32.075Z,8.00
2022-09-16T14:36:01.101Z,7.88
2022-09-16T14:38:46.050Z,6.85
2022-09-16T14:41:25.768Z,9.07
2022-09-16T14:43:54.150Z,8.43
2022-09-16T14:46:22.189Z,7.80
2022-09-16T14:48:51.748Z,9.10
2022-09-16T14:51:25.029Z,8.50
2022-09-16T14:54:11.721Z,9.73
2022-09-16T14:56:40.981Z,11.27
2022-09-16T14:59:12.253Z,11.30
2022-09-16T15:01:40.179Z,16.23
2022-09-16T15:04:14.924Z,14.73
2022-09-16T15:06:47.076Z,14.70
2022-09-16T15:09:19.782Z,15.85
2022-09-16T15:11:54.361Z,14.85
2022-09-16T15:14:23.004Z,14.27
2022-09-16T15:16:53.462Z,16.45
2022-09-16T15:19:24.915Z,15.48
2022-09-16T15:21:53.042Z,14.48
2022-09-16T15:24:23.258Z,13.40
2022-09-16T15:26:53.869Z,16.02
2022-09-16T15:29:29.975Z,14.38
2022-09-16T15:32:18.380Z,15.50
2022-09-16T15:34:46.573Z,17.05
2022-09-16T15:37:33.853Z,15.05
2022-09-16T15:40:28.400Z,16.50
2022-09-16T15:43:14.132Z,15.60
2022-09-16T15:45:44.460Z,15.77
2022-09-16T15:48:18.912Z,15.77
2022-09-16T15:50:48.386Z,13.73
2022-09-16T15:53:21.412Z,13.23
2022-09-16T15:55:59.483Z,8.57
2022-09-16T15:58:40.025Z,8.88
2022-09-16T16:01:10.734Z,8.77
2022-09-16T16:03:45.058Z,7.35
2022-09-16T16:06:14.171Z,8.23
2022-09-16T16:08:47.131Z,9.07
2022-09-16T16:11:20.201Z,7.50
2022-09-16T16:13:51.366Z,8.95
2022-09-16T16:16:19.832Z,9.15
2022-09-16T16:18:48.924Z,8.73
2022-09-16T16:21:17.178Z,11.35
2022-09-16T16:23:45.774Z,9.18
2022-09-16T16:26:16.944Z,8.65
2022-09-16T16:28:47.208Z,8.55
2022-09-16T16:31:16.711Z,7.82
2022-09-16T16:33:45.447Z,8.23
2022-09-16T16:36:17.838Z,8.60
2022-09-16T16:38:46.695Z,8.68
2022-09-16T16:41:21.899Z,9.10
2022-09-16T16:43:53.474Z,10.63
2022-09-16T16:46:21.571Z,10.82
2022-09-16T16:48:50.839Z,9.23
2022-09-16T16:51:21.232Z,9.38
2022-09-16T16:53:59.336Z,11.25
2022-09-16T16:56:49.110Z,10.75
2022-09-16T16:59:18.570Z,17.42
2022-09-16T17:01:57.607Z,8.63
2022-09-16T17:04:45.198Z,10.93
2022-09-16T17:07:32.588Z,11.48
2022-09-16T17:10:05.160Z,9.65
2022-09-16T17:12:36.533Z,10.97
2022-09-16T17:15:11.389Z,10.35
2022-09-16T17:17:50.109Z,10.38
2022-09-16T17:21:04.345Z,10.52
2022-09-16T17:23:47.315Z,10.55
2022-09-16T17:26:35.789Z,12.15
2022-09-16T17:29:19.948Z,13.77
2022-09-16T17:34:41.820Z,10.75
2022-09-16T17:37:13.590Z,10.25
2022-09-16T17:40:07.258Z,10.18
2022-09-16T17:43:02.064Z,10.35
2022-09-16T17:45:33.128Z,13.55
2022-09-16T17:48:04.926Z,10.38
2022-09-16T17:50:39.441Z,12.10
2022-09-16T17:53:24.424Z,10.35
2022-09-16T17:59:22.132Z,11.40
2022-09-16T18:01:52.030Z,12.80
2022-09-16T18:04:19.890Z,19.27
2022-09-16T18:06:48.002Z,13.52
2022-09-16T18:09:17.280Z,14.27
2022-09-16T18:11:47.364Z,15.00
2022-09-16T18:14:17.284Z,12.68
2022-09-16T18:16:49.147Z,18.65
2022-09-16T18:19:16.954Z,11.15
2022-09-16T18:21:45.058Z,12.23
2022-09-16T18:24:13.215Z,12.52
2022-09-16T18:26:42.362Z,12.38
2022-09-16T18:29:12.384Z,12.25
2022-09-16T18:31:44.936Z,14.48
2022-09-16T18:34:19.244Z,17.35
2022-09-16T18:36:52.597Z,13.40
2022-09-16T18:39:25.996Z,22.63
2022-09-16T18:41:56.544Z,12.80
2022-09-16T18:44:29.842Z,13.80
2022-09-16T18:47:00.021Z,17.67
2022-09-16T18:49:52.242Z,14.25
2022-09-16T18:52:22.228Z,15.18
2022-09-16T18:54:54.700Z,15.27
2022-09-16T18:57:28.574Z,16.58
2022-09-16T18:59:56.763Z,16.48
2022-09-16T19:02:24.718Z,14.30
2022-09-16T19:04:52.991Z,14.77
2022-09-16T19:07:24.919Z,14.02
2022-09-16T19:09:55.377Z,14.90
2022-09-16T19:12:23.518Z,15.73
2022-09-16T19:14:54.593Z,16.77
2022-09-16T19:17:23.380Z,18.73
2022-09-16T19:19:53.408Z,16.48
2022-09-16T19:22:21.470Z,17.77
2022-09-16T19:24:49.355Z,17.65
2022-09-16T19:27:18.567Z,22.95
2022-09-16T19:29:48.012Z,21.42
2022-09-16T19:32:16.362Z,22.00
2022-09-16T19:34:45.890Z,18.38
2022-09-16T19:37:13.646Z,25.27
2022-09-16T19:39:41.554Z,17.65
2022-09-16T19:42:09.945Z,20.17
2022-09-16T19:44:49.637Z,22.58
2022-09-16T19:47:25.734Z,18.42
2022-09-16T19:49:58.060Z,20.10
2022-09-16T19:52:26.443Z,20.10
2022-09-16T19:54:57.805Z,22.52
2022-09-16T19:57:27.041Z,20.13
2022-09-16T19:59:58.176Z,17.38
2022-09-16T20:02:30.044Z,17.65
2022-09-16T20:05:00.600Z,21.95
2022-09-16T20:07:37.915Z,19.25
2022-09-16T20:10:07.439Z,21.83
2022-09-16T20:12:36.942Z,20.10
2022-09-16T20:15:05.612Z,25.33
2022-09-16T20:17:38.486Z,23.70
2022-09-16T20:20:08.690Z,21.52
2022-09-16T20:22:38.000Z,24.05
2022-09-16T20:25:22.434Z,27.45
2022-09-16T20:27:52.206Z,23.67
2022-09-16T20:30:21.907Z,24.30
2022-09-16T20:32:50.573Z,26.38
2022-09-16T20:35:18.673Z,28.63
2022-09-16T20:37:47.030Z,27.60
2022-09-16T20:40:15.318Z,30.60
2022-09-16T20:42:46.161Z,34.45
2022-09-16T20:45:15.619Z,30.40
2022-09-16T20:48:05.983Z,29.15
2022-09-16T20:50:40.064Z,31.67
2022-09-16T20:53:10.038Z,32.85
2022-09-16T20:55:40.079Z,36.75
2022-09-16T20:58:11.593Z,42.72
2022-09-16T21:00:42.220Z,39.92
2022-09-16T21:03:25.460Z,41.15
2022-09-16T21:05:53.434Z,40.42
2022-09-16T21:08:22.549Z,45.53
2022-09-16T21:10:50.806Z,38.53
2022-09-16T21:13:20.769Z,43.95
2022-09-16T21:16:01.637Z,46.53
2022-09-16T21:18:48.094Z,49.97
2022-09-16T21:21:44.248Z,49.85
2022-09-16T21:24:16.391Z,53.90
2022-09-16T21:26:44.812Z,47.20
2022-09-16T21:29:18.527Z,56.03
2022-09-16T21:31:46.656Z,49.42
2022-09-16T21:34:19.194Z,47.13
2022-09-16T21:36:47.489Z,39.50
2022-09-16T21:39:18.723Z,48.15
2022-09-16T21:41:47.288Z,54.85
2022-09-16T21:44:15.206Z,52.58
2022-09-16T21:46:45.590Z,50.15
2022-09-16T21:49:24.432Z,51.38
2022-09-16T21:51:53.843Z,48.63
2022-09-16T21:54:21.950Z,56.97
2022-09-16T21:56:50.060Z,58.55
2022-09-16T21:59:20.134Z,51.58
2022-09-16T22:01:51.437Z,50.47
2022-09-16T22:04:39.459Z,48.35
2022-09-16T22:07:16.192Z,51.50
2022-09-16T22:09:51.758Z,50.10
2022-09-16T22:12:30.080Z,51.30
2022-09-16T22:15:12.727Z,53.45
2022-09-16T22:18:05.505Z,51.40
2022-09-16T22:21:09.264Z,54.35
2022-09-16T22:24:08.436Z,52.72
2022-09-16T22:27:35.157Z,53.90
2022-09-16T22:30:04.176Z,57.72
2022-09-16T22:32:32.858Z,52.38
2022-09-16T22:35:05.136Z,50.42
2022-09-16T22:37:34.459Z,49.42
2022-09-16T22:40:03.388Z,53.75
2022-09-16T22:42:32.725Z,52.55
2022-09-16T22:45:00.873Z,55.38
2022-09-16T22:47:31.112Z,54.20
2022-09-16T22:50:00.069Z,60.90
2022-09-16T22:52:41.060Z,62.88
2022-09-16T22:55:44.178Z,71.47
2022-09-16T22:58:13.861Z,73.85
2022-09-16T23:01:05.064Z,76.25
2022-09-16T23:03:36.285Z,77.35
2022-09-16T23:06:17.634Z,78.53
2022-09-16T23:08:49.443Z,79.68
2022-09-16T23:11:32.976Z,79.45
2022-09-16T23:14:03.851Z,75.22
2022-09-16T23:16:35.612Z,66.72
2022-09-16T23:19:10.248Z,64.60
2022-09-16T23:21:41.547Z,65.65
2022-09-16T23:24:16.152Z,64.82
2022-09-16T23:26:44.838Z,63.35
2022-09-16T23:29:16.731Z,66.18
2022-09-16T23:31:46.162Z,65.95
2022-09-16T23:34:19.795Z,68.03
2022-09-16T23:36:55.730Z,56.40
2022-09-16T23:39:25.047Z,59.85
2022-09-16T23:41:53.059Z,64.57
2022-09-16T23:44:26.017Z,58.85
2022-09-16T23:46:57.282Z,58.05
2022-09-16T23:49:25.832Z,56.80
2022-09-16T23:51:54.460Z,61.30
2022-09-16T23:54:24.780Z,57.53
2022-09-16T23:56:52.866Z,57.15
2022-09-16T23:59:20.728Z,48.35
